Time,TemperatureF,DewpointF,PressureIn,WindDirection,WindDirectionDegrees,WindSpeedMPH,WindSpeedGustMPH,Humidity,HourlyPrecipIn,Conditions,Clouds,dailyrainin,SoftwareType,DateUTC
2013-10-09 00:11:00,58.6,52.0,29.99,SW,218,0.0,-999.0,80,-99.99,,,0.00,weatherlink.com 1.10,2013-10-09 04:11:00,
2013-10-09 00:26:00,58.5,52.0,30.00,SSW,213,1.0,-999.0,79,-99.99,,,0.00,weatherlink.com 1.10,2013-10-09 04:26:00,
2013-10-09 00:41:00,58.4,52.0,29.99,SW,235,2.0,-999.0,80,-99.99,,,0.00,weatherlink.com 1.10,2013-10-09 04:41:00,
2013-10-09 00:56:00,58.5,52.0,29.98,SSW,204,4.0,-999.0,79,-99.99,,,0.00,weatherlink.com 1.10,2013-10-09 04:56:00,
2013-10-09 01:11:00,58.8,52.0,29.98,SW,218,1.0,-999.0,77,-99.99,,,0.00,weatherlink.com 1.10,2013-10-09 05:11:00,
2013-10-09 01:26:00,58.8,52.0,29.99,SSW,196,4.0,-999.0,77,-99.99,,,0.00,weatherlink.com 1.10,2013-10-09 05:26:00,
2013-10-09 01:41:00,59.0,51.0,29.99,SSW,210,3.0,-999.0,76,-99.99,,,0.00,weatherlink.com 1.10,2013-10-09 05:41:00,
2013-10-09 01:56:00,59.0,51.0,29.99,SSW,203,7.0,-999.0,76,-99.99,,,0.00,weatherlink.com 1.10,2013-10-09 05:56:00,
2013-10-09 02:11:00,59.0,51.0,29.99,WNW,283,2.0,-999.0,76,-99.99,,,0.00,weatherlink.com 1.10,2013-10-09 06:11:00,
2013-10-09 02:26:00,59.0,51.0,30.00,SW,222,2.0,-999.0,76,-99.99,,,0.00,weatherlink.com 1.10,2013-10-09 06:26:00,
2013-10-09 02:41:00,59.1,51.0,30.00,SSW,200,2.0,-999.0,75,-99.99,,,0.00,weatherlink.com 1.10,2013-10-09 06:41:00,
2013-10-09 02:56:00,59.1,51.0,30.00,South,190,5.0,-999.0,75,-99.99,,,0.00,weatherlink.com 1.10,2013-10-09 06:56:00,
2013-10-09 03:11:00,59.1,51.0,30.00,SW,225,3.0,-999.0,74,-99.99,,,0.00,weatherlink.com 1.10,2013-10-09 07:11:00,
2013-10-09 03:26:00,59.1,51.0,30.01,South,191,3.0,-999.0,74,-99.99,,,0.00,weatherlink.com 1.10,2013-10-09 07:26:00,
2013-10-09 03:41:00,59.3,50.0,30.01,WSW,246,2.0,-999.0,72,-99.99,,,0.00,weatherlink.com 1.10,2013-10-09 07:41:00,
2013-10-09 03:56:00,59.4,50.0,30.01,SW,233,3.0,-999.0,72,-99.99,,,0.00,weatherlink.com 1.10,2013-10-09 07:56:00,
2013-10-09 04:11:00,59.3,50.0,30.01,SSW,207,1.0,-999.0,72,-99.99,,,0.00,weatherlink.com 1.10,2013-10-09 08:11:00,
2013-10-09 04:26:00,59.1,50.0,30.01,SE,144,5.0,-999.0,72,-99.99,,,0.00,weatherlink.com 1.10,2013-10-09 08:26:00,
2013-10-09 04:41:00,58.5,50.0,30.01,SSW,212,5.0,-999.0,73,-99.99,,,0.00,weatherlink.com 1.10,2013-10-09 08:41:00,
2013-10-09 04:56:00,58.0,50.0,30.02,SSW,205,3.0,-999.0,74,-99.99,,,0.00,weatherlink.com 1.10,2013-10-09 08:56:00,
2013-10-09 05:11:00,58.1,49.0,30.02,SSW,212,1.0,-999.0,73,-99.99,,,0.00,weatherlink.com 1.10,2013-10-09 09:11:00,
2013-10-09 05:26:00,57.4,50.0,30.03,SSW,201,3.0,-999.0,75,-99.99,,,0.00,weatherlink.com 1.10,2013-10-09 09:26:00,
2013-10-09 05:41:00,56.7,50.0,30.03,SSW,211,3.0,-999.0,77,-99.99,,,0.00,weatherlink.com 1.10,2013-10-09 09:41:00,
2013-10-09 05:56:00,56.7,50.0,30.04,SSW,211,2.0,-999.0,77,-99.99,,,0.00,weatherlink.com 1.10,2013-10-09 09:56:00,
2013-10-09 06:11:00,56.7,49.0,30.05,SW,227,3.0,-999.0,76,-99.99,,,0.00,weatherlink.com 1.10,2013-10-09 10:11:00,
2013-10-09 06:26:00,56.6,49.0,30.05,SW,219,0.0,-999.0,76,-99.99,,,0.00,weatherlink.com 1.10,2013-10-09 10:26:00,
2013-10-09 06:41:00,56.8,49.0,30.05,SSW,207,1.0,-999.0,75,-99.99,,,0.00,weatherlink.com 1.10,2013-10-09 10:41:00,
2013-10-09 06:56:00,56.5,49.0,30.06,South,184,2.0,-999.0,75,-99.99,,,0.00,weatherlink.com 1.10,2013-10-09 10:56:00,
2013-10-09 07:11:00,55.7,49.0,30.06,SSW,202,3.0,-999.0,77,-99.99,,,0.00,weatherlink.com 1.10,2013-10-09 11:11:00,
2013-10-09 07:26:00,55.4,49.0,30.06,SE,138,3.0,-999.0,78,-99.99,,,0.00,weatherlink.com 1.10,2013-10-09 11:26:00,
2013-10-09 07:41:00,55.1,48.0,30.06,SW,217,1.0,-999.0,78,-99.99,,,0.00,weatherlink.com 1.10,2013-10-09 11:41:00,
2013-10-09 07:56:00,54.8,48.0,30.06,SSW,209,1.0,-999.0,79,-99.99,,,0.00,weatherlink.com 1.10,2013-10-09 11:56:00,
2013-10-09 08:11:00,54.6,48.0,30.06,SW,230,1.0,-999.0,79,-99.99,,,0.00,weatherlink.com 1.10,2013-10-09 12:11:00,
2013-10-09 08:26:00,54.8,48.0,30.07,SSW,209,0.0,-999.0,79,-99.99,,,0.00,weatherlink.com 1.10,2013-10-09 12:26:00,
2013-10-09 08:41:00,55.2,48.0,30.07,SW,222,1.0,-999.0,78,-99.99,,,0.00,weatherlink.com 1.10,2013-10-09 12:41:00,
2013-10-09 08:56:00,55.6,49.0,30.07,South,173,2.0,-999.0,77,-99.99,,,0.00,weatherlink.com 1.10,2013-10-09 12:56:00,
2013-10-09 09:11:00,55.8,48.0,30.07,SSW,209,1.0,-999.0,76,-99.99,,,0.00,weatherlink.com 1.10,2013-10-09 13:11:00,
2013-10-09 09:26:00,56.7,49.0,30.07,SSE,168,3.0,-999.0,75,-99.99,,,0.00,weatherlink.com 1.10,2013-10-09 13:26:00,
2013-10-09 09:41:00,57.9,49.0,30.07,SW,221,3.0,-999.0,73,-99.99,,,0.00,weatherlink.com 1.10,2013-10-09 13:41:00,
2013-10-09 09:56:00,58.9,49.0,30.08,SW,217,1.0,-999.0,71,-99.99,,,0.00,weatherlink.com 1.10,2013-10-09 13:56:00,
2013-10-09 10:11:00,59.7,50.0,30.08,SW,217,1.0,-999.0,71,-99.99,,,0.00,weatherlink.com 1.10,2013-10-09 14:11:00,
2013-10-09 10:26:00,60.9,51.0,30.08,South,186,1.0,-999.0,69,-99.99,,,0.00,weatherlink.com 1.10,2013-10-09 14:26:00,
2013-10-09 10:41:00,62.6,51.0,30.07,SSE,160,0.0,-999.0,66,-99.99,,,0.00,weatherlink.com 1.10,2013-10-09 14:41:00,
2013-10-09 10:56:00,64.1,51.0,30.08,NE,55,2.0,-999.0,62,-99.99,,,0.00,weatherlink.com 1.10,2013-10-09 14:56:00,
2013-10-09 11:11:00,64.8,52.0,30.08,South,182,1.0,-999.0,63,-99.99,,,0.00,weatherlink.com 1.10,2013-10-09 15:11:00,
2013-10-09 11:26:00,65.7,52.0,30.09,SSE,166,1.0,-999.0,61,-99.99,,,0.00,weatherlink.com 1.10,2013-10-09 15:26:00,
2013-10-09 11:41:00,66.4,51.0,30.08,SSW,198,1.0,-999.0,59,-99.99,,,0.00,weatherlink.com 1.10,2013-10-09 15:41:00,
2013-10-09 11:56:00,67.2,53.0,30.08,South,191,0.0,-999.0,61,-99.99,,,0.00,weatherlink.com 1.10,2013-10-09 15:56:00,
2013-10-09 12:11:00,68.1,52.0,30.09,SSE,149,3.0,-999.0,57,-99.99,,,0.00,weatherlink.com 1.10,2013-10-09 16:11:00,
2013-10-09 12:26:00,69.0,53.0,30.08,SSW,196,3.0,-999.0,57,-99.99,,,0.00,weatherlink.com 1.10,2013-10-09 16:26:00,
2013-10-09 12:41:00,69.3,53.0,30.09,SSE,161,0.0,-999.0,56,-99.99,,,0.00,weatherlink.com 1.10,2013-10-09 16:41:00,
2013-10-09 12:56:00,69.8,53.0,30.08,SSE,148,1.0,-999.0,55,-99.99,,,0.00,weatherlink.com 1.10,2013-10-09 16:56:00,
2013-10-09 13:11:00,70.1,53.0,30.09,ENE,59,1.0,-999.0,54,-99.99,,,0.00,weatherlink.com 1.10,2013-10-09 17:11:00,
2013-10-09 13:27:00,70.9,52.0,30.08,SSW,194,3.0,-999.0,52,-99.99,,,0.00,weatherlink.com 1.10,2013-10-09 17:27:00,
2013-10-09 13:41:00,71.2,52.0,30.08,SSW,208,3.0,-999.0,51,-99.99,,,0.00,weatherlink.com 1.10,2013-10-09 17:41:00,
2013-10-09 13:56:00,71.5,52.0,30.07,SSW,203,1.0,-999.0,51,-99.99,,,0.00,weatherlink.com 1.10,2013-10-09 17:56:00,
2013-10-09 14:11:00,71.6,52.0,30.07,SSE,163,0.0,-999.0,50,-99.99,,,0.00,weatherlink.com 1.10,2013-10-09 18:11:00,
2013-10-09 14:26:00,71.9,52.0,30.07,SSW,207,4.0,-999.0,50,-99.99,,,0.00,weatherlink.com 1.10,2013-10-09 18:26:00,
2013-10-09 14:42:00,72.1,53.0,30.07,South,175,1.0,-999.0,51,-99.99,,,0.00,weatherlink.com 1.10,2013-10-09 18:42:00,
2013-10-09 14:56:00,72.6,53.0,30.06,SSE,153,0.0,-999.0,51,-99.99,,,0.00,weatherlink.com 1.10,2013-10-09 18:56:00,
2013-10-09 15:11:00,72.9,54.0,30.06,SW,229,1.0,-999.0,51,-99.99,,,0.00,weatherlink.com 1.10,2013-10-09 19:11:00,
2013-10-09 15:26:00,72.9,54.0,30.06,SSE,159,1.0,-999.0,51,-99.99,,,0.00,weatherlink.com 1.10,2013-10-09 19:26:00,
2013-10-09 15:41:00,72.7,53.0,30.06,WSW,248,0.0,-999.0,50,-99.99,,,0.00,weatherlink.com 1.10,2013-10-09 19:41:00,
2013-10-09 15:56:00,72.1,54.0,30.06,SE,137,0.0,-999.0,53,-99.99,,,0.00,weatherlink.com 1.10,2013-10-09 19:56:00,
2013-10-09 16:11:00,72.1,53.0,30.06,SW,215,2.0,-999.0,51,-99.99,,,0.00,weatherlink.com 1.10,2013-10-09 20:11:00,
2013-10-09 16:26:00,72.0,54.0,30.06,East,84,0.0,-999.0,53,-99.99,,,0.00,weatherlink.com 1.10,2013-10-09 20:26:00,
2013-10-09 16:41:00,71.8,53.0,30.06,South,178,0.0,-999.0,52,-99.99,,,0.00,weatherlink.com 1.10,2013-10-09 20:41:00,
2013-10-09 16:56:00,72.1,52.0,30.06,South,171,1.0,-999.0,49,-99.99,,,0.00,weatherlink.com 1.10,2013-10-09 20:56:00,
2013-10-09 17:11:00,71.8,51.0,30.06,SSW,209,1.0,-999.0,48,-99.99,,,0.00,weatherlink.com 1.10,2013-10-09 21:11:00,
2013-10-09 17:26:00,71.5,51.0,30.07,SW,219,2.0,-999.0,49,-99.99,,,0.00,weatherlink.com 1.10,2013-10-09 21:26:00,
2013-10-09 17:41:00,71.4,51.0,30.07,SSW,205,0.0,-999.0,49,-99.99,,,0.00,weatherlink.com 1.10,2013-10-09 21:41:00,
2013-10-09 17:56:00,71.2,51.0,30.07,SE,136,0.0,-999.0,49,-99.99,,,0.00,weatherlink.com 1.10,2013-10-09 21:56:00,
2013-10-09 18:11:00,70.5,51.0,30.07,SW,233,0.0,-999.0,51,-99.99,,,0.00,weatherlink.com 1.10,2013-10-09 22:11:00,
2013-10-09 18:26:00,70.2,52.0,30.07,SE,126,0.0,-999.0,52,-99.99,,,0.00,weatherlink.com 1.10,2013-10-09 22:26:00,
2013-10-09 18:41:00,69.8,51.0,30.07,South,173,0.0,-999.0,52,-99.99,,,0.00,weatherlink.com 1.10,2013-10-09 22:41:00,
2013-10-09 18:56:00,69.2,51.0,30.08,South,173,1.0,-999.0,53,-99.99,,,0.00,weatherlink.com 1.10,2013-10-09 22:56:00,
2013-10-09 19:11:00,68.1,51.0,30.08,SSE,165,0.0,-999.0,55,-99.99,,,0.00,weatherlink.com 1.10,2013-10-09 23:11:00,
2013-10-09 19:26:00,67.8,51.0,30.08,South,177,0.0,-999.0,55,-99.99,,,0.00,weatherlink.com 1.10,2013-10-09 23:26:00,
2013-10-09 19:41:00,66.7,51.0,30.09,SW,217,1.0,-999.0,57,-99.99,,,0.00,weatherlink.com 1.10,2013-10-09 23:41:00,
2013-10-09 19:56:00,66.3,51.0,30.09,SSW,196,0.0,-999.0,58,-99.99,,,0.00,weatherlink.com 1.10,2013-10-09 23:56:00,
2013-10-09 20:11:00,65.8,51.0,30.08,SSE,149,0.0,-999.0,60,-99.99,,,0.00,weatherlink.com 1.10,2013-10-10 00:11:00,
2013-10-09 20:26:00,65.3,51.0,30.09,East,96,0.0,-999.0,60,-99.99,,,0.00,weatherlink.com 1.10,2013-10-10 00:26:00,
2013-10-09 20:41:00,64.3,52.0,30.09,East,97,0.0,-999.0,65,-99.99,,,0.00,weatherlink.com 1.10,2013-10-10 00:41:00,
2013-10-09 20:56:00,63.4,52.0,30.10,SW,230,0.0,-999.0,67,-99.99,,,0.00,weatherlink.com 1.10,2013-10-10 00:56:00,
2013-10-09 21:11:00,62.6,52.0,30.09,West,264,2.0,-999.0,68,-99.99,,,0.00,weatherlink.com 1.10,2013-10-10 01:11:00,
2013-10-09 21:26:00,62.3,52.0,30.10,SSE,148,1.0,-999.0,68,-99.99,,,0.00,weatherlink.com 1.10,2013-10-10 01:26:00,
2013-10-09 21:41:00,62.0,52.0,30.10,SSW,192,2.0,-999.0,69,-99.99,,,0.00,weatherlink.com 1.10,2013-10-10 01:41:00,
2013-10-09 21:56:00,61.6,52.0,30.09,SW,214,0.0,-999.0,71,-99.99,,,0.00,weatherlink.com 1.10,2013-10-10 01:56:00,
2013-10-09 22:10:00,61.2,52.0,30.09,SW,227,2.0,-999.0,72,-99.99,,,0.00,weatherlink.com 1.10,2013-10-10 02:10:00,
2013-10-09 22:26:00,60.9,52.0,30.09,SSW,211,2.0,-999.0,73,-99.99,,,0.00,weatherlink.com 1.10,2013-10-10 02:26:00,
2013-10-09 22:41:00,60.6,52.0,30.08,SSW,213,2.0,-999.0,74,-99.99,,,0.00,weatherlink.com 1.10,2013-10-10 02:41:00,
2013-10-09 22:56:00,60.2,53.0,30.08,SSW,210,0.0,-999.0,76,-99.99,,,0.00,weatherlink.com 1.10,2013-10-10 02:56:00,
2013-10-09 23:11:00,60.1,53.0,30.08,SW,234,3.0,-999.0,76,-99.99,,,0.00,weatherlink.com 1.10,2013-10-10 03:11:00,
2013-10-09 23:26:00,59.8,52.0,30.08,SW,224,2.0,-999.0,76,-99.99,,,0.00,weatherlink.com 1.10,2013-10-10 03:26:00,
2013-10-09 23:41:00,59.3,52.0,30.08,SW,223,4.0,-999.0,77,-99.99,,,0.00,weatherlink.com 1.10,2013-10-10 03:41:00,
2013-10-09 23:59:00,58.9,52.0,30.08,SSW,195,3.0,-999.0,77,-99.99,,,0.00,weatherlink.com 1.10,2013-10-10 03:59:00,